Time;durP1;ratioP1;P1;durP2;ratioP2;P2;SDS_P1;SDS_P2;PMS_P1;PMS_P2;Temp;Humidity;BMP_temperature;BMP_pressure;BME280_temperature;BME280_humidity;BME280_pressure;Samples;Min_cycle;Max_cycle;Signal;HPM_P1;HPM_P2
2021/01/27 00:01:13;;;;;;;9.70;8.73;;;0.80;78.20;;;;;;5047046;28;20897;-74
2021/01/27 00:03:39;;;;;;;8.80;7.50;;;0.80;78.30;;;;;;5067834;28;20472;-74
2021/01/27 00:06:06;;;;;;;8.67;7.77;;;0.80;77.80;;;;;;5057325;28;20508;-75
2021/01/27 00:08:32;;;;;;;8.47;7.50;;;0.80;78.20;;;;;;5058318;28;20441;-74
2021/01/27 00:10:59;;;;;;;9.67;7.77;;;0.80;78.30;;;;;;5053109;28;20448;-74
2021/01/27 00:13:26;;;;;;;9.70;8.40;;;0.80;78.40;;;;;;5057735;28;21549;-77
2021/01/27 00:15:53;;;;;;;12.00;9.13;;;0.80;78.00;;;;;;5058615;28;20589;-74
2021/01/27 00:18:20;;;;;;;9.90;8.70;;;0.80;78.10;;;;;;5053641;28;20492;-73
2021/01/27 00:20:47;;;;;;;10.43;8.50;;;0.80;78.10;;;;;;5056011;28;20481;-75
2021/01/27 00:23:14;;;;;;;10.60;9.00;;;0.80;78.50;;;;;;5051197;28;20456;-75
2021/01/27 00:25:40;;;;;;;10.67;9.57;;;0.80;78.70;;;;;;5054619;28;20560;-73
2021/01/27 00:28:08;;;;;;;11.20;9.43;;;0.80;78.70;;;;;;5055535;28;20443;-74
2021/01/27 00:30:37;;;;;;;11.23;9.20;;;0.90;78.80;;;;;;5059752;28;20511;-73
2021/01/27 00:33:06;;;;;;;10.33;9.17;;;0.80;78.70;;;;;;5040768;28;20547;-74
2021/01/27 00:35:34;;;;;;;10.17;8.70;;;0.80;78.60;;;;;;5040339;28;21325;-73
2021/01/27 00:38:07;;;;;;;9.57;8.57;;;0.90;79.30;;;;;;5035300;28;20489;-72
2021/01/27 00:40:33;;;;;;;13.97;10.50;;;0.90;79.10;;;;;;5038458;28;20501;-73
2021/01/27 00:43:00;;;;;;;10.63;8.50;;;0.90;79.20;;;;;;5038980;28;20458;-73
2021/01/27 00:45:26;;;;;;;9.90;8.60;;;0.90;79.30;;;;;;5043429;28;20452;-74
2021/01/27 00:47:54;;;;;;;10.50;9.07;;;1.00;78.90;;;;;;5043972;28;20462;-75
2021/01/27 00:50:20;;;;;;;10.77;9.30;;;1.00;78.80;;;;;;5038680;28;20477;-73
2021/01/27 00:52:46;;;;;;;12.53;10.20;;;1.00;78.90;;;;;;5040136;28;20448;-75
2021/01/27 00:55:15;;;;;;;12.73;9.47;;;1.00;79.20;;;;;;5044894;28;20974;-72
2021/01/27 00:57:42;;;;;;;15.50;10.87;;;0.90;81.60;;;;;;5047105;28;20460;-74
2021/01/27 01:00:14;;;;;;;13.20;11.13;;;0.80;85.40;;;;;;5035378;28;20499;-73
2021/01/27 01:02:41;;;;;;;16.00;11.50;;;0.70;88.30;;;;;;5044448;28;20789;-73
2021/01/27 01:05:11;;;;;;;13.30;12.00;;;0.70;90.20;;;;;;5040451;28;20444;-73
2021/01/27 01:07:38;;;;;;;19.10;12.50;;;0.70;91.30;;;;;;5039508;28;20906;-75
2021/01/27 01:10:06;;;;;;;16.40;12.93;;;0.80;91.90;;;;;;5039256;28;20487;-75
2021/01/27 01:12:33;;;;;;;15.87;13.70;;;0.70;92.80;;;;;;5039146;28;21028;-73
2021/01/27 01:15:00;;;;;;;17.57;14.40;;;0.70;93.80;;;;;;5037015;28;21229;-73
2021/01/27 01:17:26;;;;;;;18.23;14.90;;;0.60;94.00;;;;;;5037816;28;20484;-76
2021/01/27 01:19:53;;;;;;;18.07;14.50;;;0.60;94.20;;;;;;5035941;28;20491;-73
2021/01/27 01:22:20;;;;;;;17.90;15.17;;;0.60;94.90;;;;;;5041816;28;20446;-72
2021/01/27 01:24:46;;;;;;;16.23;14.00;;;0.60;95.40;;;;;;5037133;28;20474;-73
2021/01/27 01:27:13;;;;;;;18.00;15.63;;;0.70;96.30;;;;;;5047301;28;20482;-74
2021/01/27 01:29:39;;;;;;;19.10;15.87;;;0.70;95.70;;;;;;5047040;28;20452;-73
2021/01/27 01:32:06;;;;;;;19.50;16.20;;;0.70;95.60;;;;;;5039863;28;20445;-76
2021/01/27 01:34:32;;;;;;;22.87;16.43;;;0.70;96.10;;;;;;5037291;28;20470;-74
2021/01/27 01:36:59;;;;;;;21.03;16.40;;;0.60;96.20;;;;;;5036613;28;21041;-75
2021/01/27 01:39:26;;;;;;;22.70;16.00;;;0.60;96.30;;;;;;5040020;28;20460;-74
2021/01/27 01:41:52;;;;;;;21.70;17.30;;;0.70;97.20;;;;;;5035479;28;20502;-73
2021/01/27 01:44:19;;;;;;;22.80;17.43;;;0.70;97.00;;;;;;5041440;28;20492;-73
2021/01/27 01:46:45;;;;;;;22.77;17.70;;;0.70;97.40;;;;;;5038428;28;20542;-75
2021/01/27 01:49:13;;;;;;;24.60;19.50;;;0.70;97.70;;;;;;5043488;28;20498;-74
2021/01/27 01:51:44;;;;;;;23.83;18.67;;;0.70;97.50;;;;;;5037895;28;20567;-75
2021/01/27 01:54:17;;;;;;;30.13;17.90;;;0.60;96.50;;;;;;5036447;28;20535;-73
2021/01/27 01:56:50;;;;;;;24.67;19.37;;;0.60;96.60;;;;;;5035259;28;20459;-74
2021/01/27 01:59:17;;;;;;;25.70;19.73;;;0.60;97.00;;;;;;5040694;28;20455;-73
2021/01/27 02:01:46;;;;;;;21.27;17.70;;;0.60;97.40;;;;;;5041191;28;21071;-73
2021/01/27 02:04:13;;;;;;;23.50;17.30;;;0.60;96.70;;;;;;5042009;28;20449;-73
2021/01/27 02:06:39;;;;;;;21.13;17.93;;;0.50;95.80;;;;;;5034348;28;20443;-73
2021/01/27 02:09:06;;;;;;;20.73;17.27;;;0.60;95.20;;;;;;5043939;28;21181;-73
2021/01/27 02:11:58;;;;;;;21.30;17.43;;;0.60;95.40;;;;;;5035906;28;20472;-73
2021/01/27 02:14:37;;;;;;;29.83;19.07;;;0.60;94.70;;;;;;5040632;28;20454;-73
2021/01/27 02:17:10;;;;;;;20.73;16.47;;;0.60;93.70;;;;;;5034107;28;20483;-75
2021/01/27 02:20:22;;;;;;;23.43;18.00;;;0.70;92.90;;;;;;5038250;28;20483;-74
2021/01/27 02:23:32;;;;;;;22.77;17.90;;;0.70;92.90;;;;;;5032158;28;20508;-74
2021/01/27 02:26:12;;;;;;;26.27;18.00;;;0.70;93.00;;;;;;5034760;28;20513;-73
2021/01/27 02:29:13;;;;;;;28.43;18.03;;;0.70;92.90;;;;;;5034498;28;20460;-76
2021/01/27 02:31:43;;;;;;;23.17;17.63;;;0.70;93.00;;;;;;5037667;28;20447;-78
2021/01/27 02:34:52;;;;;;;21.80;16.60;;;0.70;92.00;;;;;;5039765;28;20955;-78
2021/01/27 02:37:23;;;;;;;26.17;17.33;;;0.70;92.10;;;;;;5042002;28;20495;-77
2021/01/27 02:39:55;;;;;;;23.73;16.57;;;0.70;91.80;;;;;;5050237;28;20813;-78
2021/01/27 02:42:30;;;;;;;22.60;17.60;;;0.80;91.40;;;;;;5045561;28;20524;-78
2021/01/27 02:45:01;;;;;;;24.43;17.60;;;0.80;91.20;;;;;;5045429;28;20928;-77
2021/01/27 02:47:40;;;;;;;22.23;16.93;;;0.80;91.00;;;;;;5041384;28;20522;-78
2021/01/27 02:50:12;;;;;;;21.73;17.17;;;0.80;90.70;;;;;;5046553;28;20537;-77
2021/01/27 02:52:45;;;;;;;22.57;16.50;;;0.80;90.70;;;;;;5041398;28;20527;-77
2021/01/27 02:55:16;;;;;;;24.00;17.87;;;0.80;90.60;;;;;;5043333;28;20735;-77
2021/01/27 02:57:48;;;;;;;20.43;16.27;;;0.80;90.60;;;;;;5044986;28;20547;-78
2021/01/27 03:00:20;;;;;;;21.83;17.37;;;0.80;90.40;;;;;;5046573;28;20484;-78
2021/01/27 03:02:55;;;;;;;24.13;18.07;;;0.80;90.10;;;;;;5047304;28;20478;-78
2021/01/27 03:05:29;;;;;;;26.67;18.27;;;0.70;90.00;;;;;;5045021;28;20942;-78
2021/01/27 03:07:59;;;;;;;21.90;17.10;;;0.70;90.80;;;;;;5043349;28;20449;-78
2021/01/27 03:10:31;;;;;;;26.07;17.17;;;0.40;89.80;;;;;;5043659;28;20536;-78
2021/01/27 03:12:57;;;;;;;19.50;15.13;;;0.30;90.10;;;;;;5044893;28;21010;-78
2021/01/27 03:15:23;;;;;;;22.07;16.87;;;0.20;90.70;;;;;;5045567;28;20475;-77
2021/01/27 03:17:54;;;;;;;22.27;16.97;;;0.00;91.00;;;;;;5041706;28;20533;-77
2021/01/27 03:20:25;;;;;;;22.10;16.90;;;-0.30;91.40;;;;;;5042149;28;20469;-78
2021/01/27 03:22:56;;;;;;;24.20;16.60;;;-0.60;95.10;;;;;;5049155;28;20453;-78
2021/01/27 03:25:25;;;;;;;21.73;17.17;;;-0.60;94.30;;;;;;5047978;28;20456;-78
2021/01/27 03:27:58;;;;;;;26.47;16.80;;;-0.60;94.70;;;;;;5040641;28;20463;-78
2021/01/27 03:30:25;;;;;;;28.03;18.97;;;-0.80;95.10;;;;;;5043439;28;20498;-78
2021/01/27 03:33:00;;;;;;;24.63;18.10;;;-0.80;96.90;;;;;;5047324;28;20497;-78
2021/01/27 03:35:33;;;;;;;22.30;17.10;;;-0.90;96.30;;;;;;5039156;28;20448;-78
2021/01/27 03:38:05;;;;;;;21.47;15.20;;;-1.00;97.00;;;;;;5045793;28;20454;-78
2021/01/27 03:40:31;;;;;;;22.00;16.00;;;-1.10;98.50;;;;;;5036230;28;20483;-78
2021/01/27 03:43:09;;;;;;;23.80;17.50;;;-1.10;99.90;;;;;;5045542;28;20435;-77
2021/01/27 03:45:40;;;;;;;24.57;18.17;;;-1.20;98.90;;;;;;5049018;28;20521;-78
2021/01/27 03:48:14;;;;;;;23.10;15.87;;;-1.20;99.90;;;;;;5043269;28;20538;-78
2021/01/27 03:50:43;;;;;;;22.23;16.03;;;-1.30;96.80;;;;;;5040786;28;20480;-78
2021/01/27 03:53:14;;;;;;;21.83;15.80;;;-1.30;96.70;;;;;;5046947;28;20453;-78
2021/01/27 03:55:48;;;;;;;25.43;15.20;;;-1.30;98.00;;;;;;5039682;28;20944;-78
2021/01/27 03:58:19;;;;;;;22.53;16.80;;;-1.30;98.40;;;;;;5045685;28;20542;-78
2021/01/27 04:00:46;;;;;;;21.93;16.80;;;;;;;;;;5038430;28;21019;-77
2021/01/27 04:03:16;;;;;;;22.67;16.90;;;-1.50;96.20;;;;;;5045813;28;20894;-77
2021/01/27 04:05:44;;;;;;;20.10;13.80;;;-1.50;96.30;;;;;;5039386;28;20484;-77
2021/01/27 04:08:10;;;;;;;23.37;15.73;;;-1.50;96.30;;;;;;5040121;28;20451;-77
2021/01/27 04:10:38;;;;;;;20.40;15.83;;;-1.50;96.60;;;;;;5048039;28;20469;-77
2021/01/27 04:13:04;;;;;;;22.77;14.90;;;-1.50;95.50;;;;;;5042622;28;20527;-77
2021/01/27 04:15:31;;;;;;;23.63;14.57;;;-1.60;95.10;;;;;;5046883;28;20446;-77
2021/01/27 04:17:57;;;;;;;20.43;14.33;;;-1.60;95.50;;;;;;5044524;28;20579;-77
2021/01/27 04:20:24;;;;;;;22.57;15.37;;;-1.60;95.60;;;;;;5046181;28;20571;-77
2021/01/27 04:22:52;;;;;;;22.33;15.33;;;-1.60;95.50;;;;;;5048892;28;20453;-77
2021/01/27 04:25:18;;;;;;;19.50;14.50;;;-1.60;96.00;;;;;;5043871;28;20985;-77
2021/01/27 04:27:45;;;;;;;20.20;15.23;;;-1.60;96.20;;;;;;5039341;28;20956;-77
2021/01/27 04:30:14;;;;;;;21.20;16.07;;;-1.70;96.40;;;;;;5046091;28;20995;-77
2021/01/27 04:32:41;;;;;;;24.27;16.20;;;-1.60;97.50;;;;;;5041626;28;20991;-77
2021/01/27 04:35:09;;;;;;;21.77;15.20;;;-1.60;97.80;;;;;;5045413;28;20472;-77
2021/01/27 04:37:35;;;;;;;23.87;14.17;;;-1.50;97.10;;;;;;5041562;28;21046;-77
2021/01/27 04:40:04;;;;;;;21.93;15.50;;;-1.60;95.70;;;;;;5045511;28;20541;-77
2021/01/27 04:42:31;;;;;;;32.00;15.50;;;-1.60;95.80;;;;;;5046481;28;20489;-77
2021/01/27 04:44:58;;;;;;;21.33;14.30;;;-1.70;96.10;;;;;;5046930;28;20493;-77
2021/01/27 04:47:30;;;;;;;23.90;16.50;;;-1.70;96.70;;;;;;5041047;28;20474;-79
2021/01/27 04:50:00;;;;;;;21.93;14.57;;;-1.60;96.90;;;;;;5040891;28;20489;-79
2021/01/27 04:52:53;;;;;;;20.30;14.37;;;-1.60;96.30;;;;;;5044733;28;20477;-77
2021/01/27 04:55:43;;;;;;;19.67;15.13;;;-1.60;96.30;;;;;;5044700;28;20467;-77
2021/01/27 04:58:20;;;;;;;21.00;15.40;;;-1.60;96.00;;;;;;5034879;28;20538;-77
2021/01/27 05:01:00;;;;;;;22.87;16.20;;;-1.70;96.00;;;;;;5047527;28;20933;-77
2021/01/27 05:04:11;;;;;;;25.37;16.20;;;-1.60;99.30;;;;;;5036223;28;20566;-77
2021/01/27 05:06:42;;;;;;;23.20;15.53;;;-1.60;99.00;;;;;;5024185;28;20454;-77
2021/01/27 05:09:12;;;;;;;26.73;16.57;;;-1.60;99.70;;;;;;5038987;28;20836;-78
2021/01/27 05:11:40;;;;;;;23.40;17.50;;;-1.50;99.90;;;;;;5055613;28;20493;-78
2021/01/27 05:14:08;;;;;;;26.00;18.53;;;-1.50;99.90;;;;;;5052103;28;20519;-78
2021/01/27 05:16:34;;;;;;;29.50;18.70;;;-1.50;99.90;;;;;;5048450;28;20542;-77
2021/01/27 05:19:05;;;;;;;28.53;18.93;;;-1.50;99.90;;;;;;5043134;28;20982;-77
2021/01/27 05:21:35;;;;;;;27.20;18.00;;;-1.60;99.90;;;;;;5049327;28;20565;-77
2021/01/27 05:24:02;;;;;;;25.67;18.27;;;-1.60;99.90;;;;;;5038326;28;20450;-78
2021/01/27 05:26:40;;;;;;;27.87;18.17;;;-1.60;99.90;;;;;;5041591;28;20537;-77
2021/01/27 05:29:14;;;;;;;27.90;18.07;;;-1.60;99.90;;;;;;5035405;28;20550;-77
2021/01/27 05:32:04;;;;;;;27.20;17.60;;;-1.60;99.90;;;;;;5044587;28;20477;-77
2021/01/27 05:34:35;;;;;;;24.70;17.90;;;-1.60;99.90;;;;;;5041175;28;20458;-78
2021/01/27 05:37:03;;;;;;;23.20;17.90;;;-1.70;99.90;;;;;;5042374;28;20451;-78
2021/01/27 05:39:31;;;;;;;30.87;18.33;;;-1.70;99.90;;;;;;5040192;28;20533;-78
2021/01/27 05:42:06;;;;;;;27.93;19.90;;;-1.70;99.90;;;;;;5040992;28;20612;-77
2021/01/27 05:44:34;;;;;;;24.90;17.77;;;-1.70;99.90;;;;;;5043396;28;20454;-77
2021/01/27 05:47:24;;;;;;;30.57;20.07;;;-1.60;99.90;;;;;;5039691;28;20485;-77
2021/01/27 05:49:51;;;;;;;27.83;18.37;;;-1.60;99.90;;;;;;5039550;28;20473;-78
2021/01/27 05:52:20;;;;;;;24.33;17.40;;;-1.60;99.90;;;;;;5040690;28;20552;-77
2021/01/27 05:54:46;;;;;;;29.30;17.80;;;-1.60;99.90;;;;;;5038470;28;20542;-77
2021/01/27 05:57:17;;;;;;;24.90;17.73;;;-1.50;99.90;;;;;;5041347;28;21119;-77
2021/01/27 05:59:46;;;;;;;26.60;17.20;;;-1.40;99.90;;;;;;5045620;28;20462;-77
2021/01/27 06:02:12;;;;;;;24.03;16.60;;;-1.40;99.90;;;;;;5039403;28;20474;-77
2021/01/27 06:04:39;;;;;;;26.37;18.13;;;-1.50;99.20;;;;;;5035194;28;20447;-78
2021/01/27 06:07:09;;;;;;;23.50;17.23;;;-1.60;99.20;;;;;;5041982;28;20764;-78
2021/01/27 06:09:40;;;;;;;23.00;17.60;;;-1.80;98.30;;;;;;5045257;28;20638;-78
2021/01/27 06:12:11;;;;;;;26.83;17.13;;;-1.80;98.50;;;;;;5037522;28;20439;-78
2021/01/27 06:14:38;;;;;;;24.80;18.33;;;-1.80;99.90;;;;;;5052941;28;20468;-79
2021/01/27 06:17:26;;;;;;;25.53;18.87;;;-1.80;99.90;;;;;;5046724;28;20493;-78
2021/01/27 06:20:08;;;;;;;21.77;16.00;;;-1.80;99.90;;;;;;5057173;28;20438;-77
2021/01/27 06:23:14;;;;;;;30.13;18.07;;;-1.80;99.90;;;;;;5050447;28;20479;-77
2021/01/27 06:25:53;;;;;;;26.07;16.77;;;-1.90;99.90;;;;;;5049692;28;20795;-78
2021/01/27 06:28:32;;;;;;;22.00;16.17;;;-1.90;99.90;;;;;;5047079;28;20776;-78
2021/01/27 06:31:18;;;;;;;21.87;16.77;;;-2.00;99.90;;;;;;5042135;28;20452;-78
2021/01/27 06:34:13;;;;;;;23.83;16.90;;;-2.00;99.90;;;;;;5044190;28;20454;-78
2021/01/27 06:37:15;;;;;;;24.63;16.67;;;-2.00;99.90;;;;;;5041391;28;21081;-76
2021/01/27 06:40:12;;;;;;;26.73;15.83;;;-1.90;99.90;;;;;;5043353;28;21436;-77
2021/01/27 06:43:12;;;;;;;24.87;16.53;;;-1.90;99.90;;;;;;5046365;28;20956;-81
2021/01/27 06:45:54;;;;;;;24.67;16.33;;;-1.80;99.80;;;;;;5032255;28;20546;-79
2021/01/27 06:48:36;;;;;;;24.63;18.52;;;-1.90;96.10;;;;;;5041096;28;20452;-81
2021/01/27 06:51:33;;;;;;;20.97;17.07;;;-1.90;96.00;;;;;;5048231;28;20228;-79
2021/01/27 06:54:31;;;;;;;22.07;15.87;;;-1.90;95.80;;;;;;5047414;28;20454;-80
2021/01/27 06:57:14;;;;;;;23.00;16.10;;;-1.90;96.00;;;;;;5045330;28;20795;-78
2021/01/27 07:00:05;;;;;;;25.63;16.47;;;-1.90;95.30;;;;;;5059076;28;20470;-79
2021/01/27 07:03:05;;;;;;;19.97;14.63;;;-1.90;94.50;;;;;;5053438;28;20470;-78
2021/01/27 07:06:00;;;;;;;20.13;14.27;;;-1.90;93.90;;;;;;5059423;28;20480;-87
2021/01/27 07:08:46;;;;;;;20.10;15.17;;;-1.90;93.90;;;;;;5061197;28;20484;-85
2021/01/27 07:11:24;;;;;;;18.47;13.27;;;-1.90;93.90;;;;;;5060418;28;20439;-86
2021/01/27 07:14:38;;;;;;;23.57;15.10;;;-1.70;94.00;;;;;;5052246;28;20972;-84
2021/01/27 07:17:16;;;;;;;21.27;14.07;;;-1.80;94.30;;;;;;5049186;28;20467;-80
2021/01/27 07:20:16;;;;;;;20.77;15.23;;;-1.70;93.40;;;;;;5048896;28;20455;-78
2021/01/27 07:22:51;;;;;;;17.67;13.30;;;-1.70;93.50;;;;;;5040083;28;20483;-79
2021/01/27 07:25:22;;;;;;;19.10;13.50;;;-1.70;92.50;;;;;;5052606;28;20442;-77
2021/01/27 07:27:57;;;;;;;29.90;14.40;;;-1.70;91.60;;;;;;5050638;28;20445;-77
2021/01/27 07:30:32;;;;;;;22.70;14.43;;;-1.60;91.50;;;;;;5057092;28;20449;-77
2021/01/27 07:33:06;;;;;;;21.10;13.43;;;-1.50;91.30;;;;;;5047143;28;20940;-78
2021/01/27 07:35:37;;;;;;;19.60;14.30;;;-1.40;91.00;;;;;;5039676;28;20517;-79
2021/01/27 07:38:09;;;;;;;19.20;13.17;;;-1.30;90.50;;;;;;5051777;28;20540;-79
2021/01/27 07:40:42;;;;;;;17.37;13.60;;;-1.30;88.80;;;;;;5053466;28;20442;-80
2021/01/27 07:43:14;;;;;;;19.10;13.20;;;-1.10;88.00;;;;;;5060325;28;20442;-82
2021/01/27 07:45:48;;;;;;;22.03;13.97;;;-1.10;86.20;;;;;;5063345;28;20968;-82
2021/01/27 07:48:20;;;;;;;16.80;13.00;;;-1.00;85.60;;;;;;5051841;28;20971;-80
2021/01/27 07:50:54;;;;;;;16.67;13.20;;;-0.90;84.10;;;;;;5051727;28;20464;-80
2021/01/27 07:53:26;;;;;;;18.30;12.63;;;-0.80;84.00;;;;;;5052788;28;20832;-79
2021/01/27 07:56:15;;;;;;;16.03;12.53;;;-0.80;83.20;;;;;;5055865;28;20458;-82
2021/01/27 07:58:47;;;;;;;20.43;13.73;;;-0.80;82.80;;;;;;5049561;28;20447;-80
2021/01/27 08:01:18;;;;;;;18.07;13.63;;;-0.70;81.30;;;;;;5049979;28;20597;-76
2021/01/27 08:03:58;;;;;;;16.80;14.88;;;-0.60;80.80;;;;;;5044007;28;21077;-76
2021/01/27 08:06:26;;;;;;;15.80;13.50;;;-0.50;80.00;;;;;;5039198;28;21021;-76
2021/01/27 08:08:56;;;;;;;18.67;13.80;;;-0.30;79.40;;;;;;5041138;28;20452;-76
2021/01/27 08:11:32;;;;;;;15.30;12.50;;;-0.20;79.10;;;;;;5044293;28;20466;-77
2021/01/27 08:13:59;;;;;;;16.70;12.00;;;-0.10;78.40;;;;;;5047294;28;20442;-77
2021/01/27 08:16:38;;;;;;;16.23;11.23;;;-0.10;78.10;;;;;;5040458;28;20526;-79
2021/01/27 08:19:30;;;;;;;16.10;11.70;;;0.10;77.20;;;;;;5043332;28;20452;-78
2021/01/27 08:22:02;;;;;;;13.70;10.63;;;0.20;76.20;;;;;;5044757;28;20468;-78
2021/01/27 08:24:49;;;;;;;15.30;11.60;;;0.30;75.80;;;;;;5047145;28;20475;-78
2021/01/27 08:27:28;;;;;;;15.30;11.80;;;0.40;75.70;;;;;;5036211;28;20985;-76
2021/01/27 08:30:24;;;;;;;13.67;10.97;;;0.50;75.10;;;;;;5047501;28;20505;-75
2021/01/27 08:33:26;;;;;;;18.03;11.27;;;0.50;75.00;;;;;;5041052;28;20463;-76
2021/01/27 08:36:05;;;;;;;18.57;11.50;;;0.60;74.70;;;;;;5047157;28;20524;-78
2021/01/27 08:38:34;;;;;;;13.97;10.80;;;0.70;74.50;;;;;;5045819;28;20450;-77
2021/01/27 08:41:02;;;;;;;13.43;11.13;;;0.60;73.90;;;;;;5039006;28;20460;-77
2021/01/27 08:43:36;;;;;;;14.57;11.23;;;0.70;73.50;;;;;;5045561;28;21362;-76
2021/01/27 08:46:26;;;;;;;13.67;10.40;;;0.70;73.20;;;;;;5041641;28;20535;-76
2021/01/27 08:48:53;;;;;;;17.97;14.43;;;1.00;73.50;;;;;;5041332;28;20806;-79
2021/01/27 08:51:49;;;;;;;13.93;11.40;;;1.20;73.50;;;;;;5047229;28;20450;-82
2021/01/27 08:54:29;;;;;;;13.43;10.93;;;1.20;72.70;;;;;;5052446;28;20447;-81
2021/01/27 08:57:17;;;;;;;13.13;11.02;;;1.10;72.30;;;;;;5042961;28;20813;-78
2021/01/27 09:00:00;;;;;;;14.27;10.80;;;1.30;72.80;;;;;;5045580;28;20209;-79
2021/01/27 09:02:50;;;;;;;12.03;10.27;;;1.30;72.30;;;;;;5035486;28;20471;-79
2021/01/27 09:05:44;;;;;;;13.13;10.03;;;1.20;71.70;;;;;;5041907;28;21001;-77
2021/01/27 09:08:30;;;;;;;12.07;9.70;;;1.40;71.60;;;;;;5035543;28;20459;-76
2021/01/27 09:10:59;;;;;;;12.20;10.53;;;1.60;70.90;;;;;;5040150;28;20858;-77
2021/01/27 09:13:35;;;;;;;10.90;9.80;;;1.60;71.00;;;;;;5036762;28;20450;-75
2021/01/27 09:16:07;;;;;;;12.68;11.18;;;1.90;70.90;;;;;;5052922;28;20449;-79
2021/01/27 09:18:35;;;;;;;14.73;9.97;;;1.80;69.90;;;;;;5051351;28;20230;-79
2021/01/27 09:21:10;;;;;;;9.87;8.90;;;1.80;69.40;;;;;;5045416;28;20478;-80
2021/01/27 09:23:37;;;;;;;12.37;10.07;;;1.80;69.40;;;;;;5042453;28;20535;-79
2021/01/27 09:26:13;;;;;;;11.70;10.50;;;1.80;69.80;;;;;;5057628;28;20444;-79
2021/01/27 09:28:40;;;;;;;12.50;10.17;;;1.80;69.40;;;;;;5040151;28;20543;-76
2021/01/27 09:31:14;;;;;;;12.97;10.30;;;1.90;69.10;;;;;;5041988;28;20808;-75
2021/01/27 09:33:41;;;;;;;9.83;8.67;;;2.00;69.00;;;;;;5042061;28;20479;-78
2021/01/27 09:36:13;;;;;;;13.23;8.97;;;2.10;68.90;;;;;;5048994;28;20459;-78
2021/01/27 09:38:40;;;;;;;12.50;8.90;;;2.20;68.60;;;;;;5045026;28;21018;-77
2021/01/27 09:41:11;;;;;;;11.20;8.63;;;2.20;68.30;;;;;;5039750;28;20469;-77
2021/01/27 09:43:42;;;;;;;12.70;8.10;;;2.60;68.00;;;;;;5046092;28;20448;-78
2021/01/27 09:46:26;;;;;;;12.43;10.00;;;2.90;67.80;;;;;;5051187;28;20468;-78
2021/01/27 09:48:54;;;;;;;10.50;8.67;;;2.90;67.00;;;;;;5038301;28;20510;-76
2021/01/27 09:51:21;;;;;;;15.93;8.57;;;2.90;66.60;;;;;;5042760;28;20918;-77
2021/01/27 09:53:49;;;;;;;10.40;8.53;;;2.90;66.80;;;;;;5037168;28;20469;-76
2021/01/27 09:56:18;;;;;;;9.13;8.20;;;3.00;66.40;;;;;;5038787;28;20465;-76
2021/01/27 09:58:45;;;;;;;10.00;7.47;;;3.00;66.10;;;;;;5039660;28;20442;-74
2021/01/27 10:01:17;;;;;;;9.77;8.77;;;3.20;65.90;;;;;;5040793;28;20539;-76
2021/01/27 10:03:46;;;;;;;11.90;8.83;;;3.10;65.20;;;;;;5047479;28;20533;-79
2021/01/27 10:06:38;;;;;;;10.23;8.90;;;3.00;65.00;;;;;;5035853;28;20493;-78
2021/01/27 10:09:12;;;;;;;10.03;8.60;;;2.80;64.80;;;;;;5046977;28;20829;-76
2021/01/27 10:11:39;;;;;;;10.60;8.10;;;2.90;65.20;;;;;;5040282;28;20511;-75
2021/01/27 10:14:09;;;;;;;11.13;8.73;;;3.10;65.20;;;;;;5042789;28;20454;-76
2021/01/27 10:16:48;;;;;;;10.30;9.27;;;3.20;64.80;;;;;;5043402;28;20544;-76
2021/01/27 10:19:21;;;;;;;10.80;9.17;;;3.20;64.80;;;;;;5046509;28;20449;-76
2021/01/27 10:21:48;;;;;;;9.97;8.90;;;3.10;64.10;;;;;;5043745;28;20479;-76
2021/01/27 10:24:47;;;;;;;11.30;9.00;;;2.70;63.70;;;;;;5042755;28;20454;-77
2021/01/27 10:27:24;;;;;;;9.53;8.00;;;2.30;63.80;;;;;;5036939;28;20457;-76
2021/01/27 10:29:51;;;;;;;10.13;9.00;;;2.80;64.50;;;;;;5052551;28;20590;-79
2021/01/27 10:32:34;;;;;;;11.37;8.17;;;2.70;64.50;;;;;;5036456;28;20461;-76
2021/01/27 10:35:32;;;;;;;10.90;8.30;;;3.00;65.30;;;;;;5034362;28;20449;-78
2021/01/27 10:38:21;;;;;;;10.10;8.10;;;3.40;64.90;;;;;;5038934;28;20817;-80
2021/01/27 10:41:12;;;;;;;10.13;8.90;;;3.40;64.50;;;;;;5039680;28;20457;-77
2021/01/27 10:43:38;;;;;;;10.43;7.70;;;3.40;64.00;;;;;;5044790;28;20597;-77
2021/01/27 10:46:30;;;;;;;10.55;9.00;;;3.40;64.40;;;;;;5035519;28;20472;-79
2021/01/27 10:48:56;;;;;;;12.13;8.80;;;3.50;64.20;;;;;;5037723;28;20554;-75
2021/01/27 10:51:24;;;;;;;9.53;7.63;;;3.30;63.30;;;;;;5031743;28;20770;-75
2021/01/27 10:53:50;;;;;;;9.37;7.80;;;3.40;63.50;;;;;;5039351;28;20465;-76
2021/01/27 10:56:19;;;;;;;10.23;8.87;;;3.30;63.30;;;;;;5038297;28;20442;-76
2021/01/27 10:58:45;;;;;;;10.10;9.10;;;3.60;64.00;;;;;;5036582;28;20476;-74
2021/01/27 11:01:11;;;;;;;9.73;8.73;;;3.80;63.70;;;;;;5046937;28;20496;-74
2021/01/27 11:03:38;;;;;;;10.10;9.10;;;3.70;63.30;;;;;;5028931;28;20442;-75
2021/01/27 11:06:05;;;;;;;10.33;9.17;;;3.80;63.60;;;;;;5038059;28;20805;-79
2021/01/27 11:08:34;;;;;;;10.88;9.70;;;3.90;63.40;;;;;;5044604;28;20465;-80
2021/01/27 11:11:05;;;;;;;11.80;9.00;;;4.10;62.90;;;;;;5059514;28;20217;-81
2021/01/27 11:13:35;;;;;;;10.03;9.00;;;4.00;62.10;;;;;;5062054;28;20456;-81
2021/01/27 11:16:02;;;;;;;12.07;8.47;;;4.00;61.70;;;;;;5047674;28;20445;-81
2021/01/27 11:18:29;;;;;;;12.20;9.40;;;3.90;62.30;;;;;;5053595;28;20464;-81
2021/01/27 11:20:56;;;;;;;10.63;8.80;;;4.00;62.10;;;;;;5051704;28;20530;-81
2021/01/27 11:23:23;;;;;;;14.63;8.90;;;4.20;61.90;;;;;;5053203;28;20444;-81
2021/01/27 11:25:53;;;;;;;9.93;8.50;;;4.20;62.00;;;;;;5063990;28;20448;-81
2021/01/27 11:28:19;;;;;;;10.13;8.93;;;4.00;61.20;;;;;;5058111;28;20461;-78
2021/01/27 11:30:48;;;;;;;10.70;8.80;;;3.90;61.60;;;;;;5049569;28;20453;-79
2021/01/27 11:33:14;;;;;;;9.20;8.27;;;3.90;61.40;;;;;;5039151;28;20872;-79
2021/01/27 11:35:41;;;;;;;10.97;9.83;;;4.10;61.60;;;;;;5045161;28;20454;-78
2021/01/27 11:38:07;;;;;;;10.57;9.10;;;4.20;61.20;;;;;;5048557;28;20453;-78
2021/01/27 11:40:33;;;;;;;13.47;9.70;;;4.20;61.20;;;;;;5047926;28;20460;-78
2021/01/27 11:43:03;;;;;;;10.63;9.10;;;4.40;61.80;;;;;;5044946;28;20477;-78
2021/01/27 11:45:30;;;;;;;10.73;9.27;;;4.50;61.10;;;;;;5041093;28;21123;-79
2021/01/27 11:47:56;;;;;;;11.03;8.83;;;4.40;61.00;;;;;;5046476;28;20559;-79
2021/01/27 11:50:25;;;;;;;12.30;9.47;;;4.20;60.90;;;;;;5046676;28;20449;-79
2021/01/27 11:52:52;;;;;;;15.73;9.87;;;4.10;60.70;;;;;;5036408;28;20862;-80
2021/01/27 11:55:21;;;;;;;13.70;9.83;;;4.10;60.80;;;;;;5040880;28;20449;-79
2021/01/27 11:57:47;;;;;;;9.67;8.70;;;4.10;61.50;;;;;;5046001;28;20448;-78
2021/01/27 12:00:17;;;;;;;10.13;8.90;;;4.20;61.20;;;;;;5039422;28;20541;-80
2021/01/27 12:02:44;;;;;;;10.20;9.20;;;4.20;60.60;;;;;;5042192;28;20480;-79
2021/01/27 12:05:11;;;;;;;12.00;9.50;;;4.20;60.90;;;;;;5042923;28;20488;-79
2021/01/27 12:07:38;;;;;;;10.77;8.60;;;4.10;61.40;;;;;;5041510;28;20508;-79
2021/01/27 12:10:05;;;;;;;12.50;8.50;;;4.10;60.80;;;;;;5044606;28;20449;-80
2021/01/27 12:12:32;;;;;;;9.83;8.83;;;4.10;60.80;;;;;;5040188;28;20522;-78
2021/01/27 12:15:00;;;;;;;12.10;9.40;;;4.20;60.40;;;;;;5043772;28;20446;-79
2021/01/27 12:17:27;;;;;;;11.23;9.97;;;4.20;61.40;;;;;;5041999;28;21014;-79
2021/01/27 12:19:53;;;;;;;11.33;9.90;;;4.00;61.20;;;;;;5040272;28;20865;-79
2021/01/27 12:22:20;;;;;;;10.60;9.50;;;4.00;60.80;;;;;;5046675;28;20481;-79
2021/01/27 12:24:47;;;;;;;13.00;9.20;;;4.10;60.70;;;;;;5045053;28;20918;-80
2021/01/27 12:27:13;;;;;;;10.50;9.33;;;4.10;61.70;;;;;;5036178;28;20464;-79
2021/01/27 12:29:40;;;;;;;10.33;8.60;;;4.00;60.70;;;;;;5053833;28;20638;-79
2021/01/27 12:32:07;;;;;;;30.00;15.37;;;4.20;60.60;;;;;;5049643;28;20447;-78
2021/01/27 12:34:35;;;;;;;19.70;14.10;;;4.20;60.40;;;;;;5054068;28;20672;-78
2021/01/27 12:37:02;;;;;;;10.07;8.20;;;4.20;60.50;;;;;;5045400;28;20524;-79
2021/01/27 12:39:28;;;;;;;10.33;8.10;;;4.10;60.40;;;;;;5052454;28;20449;-79
2021/01/27 12:41:55;;;;;;;9.97;8.80;;;4.20;60.70;;;;;;5045914;28;20565;-79
2021/01/27 12:44:22;;;;;;;10.80;9.73;;;4.20;60.10;;;;;;5049344;28;20437;-79
2021/01/27 12:46:49;;;;;;;11.90;9.57;;;4.10;60.80;;;;;;5063912;28;20486;-78
2021/01/27 12:49:16;;;;;;;9.87;8.97;;;4.10;60.90;;;;;;5051168;28;20515;-79
2021/01/27 12:51:46;;;;;;;9.83;8.80;;;4.00;60.50;;;;;;5047352;28;21040;-79
2021/01/27 12:54:13;;;;;;;13.60;8.50;;;3.90;61.00;;;;;;5052110;28;20599;-79
2021/01/27 12:56:39;;;;;;;9.43;8.50;;;4.10;61.60;;;;;;5048915;28;20474;-79
2021/01/27 12:59:06;;;;;;;14.10;8.77;;;4.10;61.40;;;;;;5043041;28;20560;-78
2021/01/27 13:01:32;;;;;;;9.70;7.67;;;3.90;61.00;;;;;;5045382;28;21083;-79
2021/01/27 13:04:00;;;;;;;11.77;8.07;;;4.00;60.80;;;;;;5049773;28;20563;-79
2021/01/27 13:06:27;;;;;;;9.73;8.37;;;3.90;60.40;;;;;;5048170;28;20551;-78
2021/01/27 13:08:55;;;;;;;7.37;6.67;;;4.00;61.10;;;;;;5046736;28;20454;-77